Time;durP1;ratioP1;P1;durP2;ratioP2;P2;SDS_P1;SDS_P2;PMS_P1;PMS_P2;Temp;Humidity;BMP_temperature;BMP_pressure;BME280_temperature;BME280_humidity;BME280_pressure;Samples;Min_cycle;Max_cycle;Signal;HPM_P1;HPM_P2
2021/04/19 00:00:08;;;;;;;7.57;5.68;;;5.20;99.90;;;;;;5045762;28;20481;-75
2021/04/19 00:02:34;;;;;;;12.70;7.13;;;5.00;99.90;;;;;;5034551;28;20484;-75
2021/04/19 00:05:00;;;;;;;11.63;7.07;;;5.00;99.90;;;;;;5033352;28;20035;-75
2021/04/19 00:07:25;;;;;;;11.45;7.13;;;5.00;99.90;;;;;;5034564;28;20057;-75
2021/04/19 00:09:51;;;;;;;13.07;7.10;;;5.10;99.90;;;;;;5034397;28;20108;-75
2021/04/19 00:12:17;;;;;;;7.72;6.07;;;5.00;99.90;;;;;;5034544;28;20017;-75
2021/04/19 00:14:42;;;;;;;9.18;7.32;;;4.90;99.90;;;;;;5034092;28;20084;-75
2021/04/19 00:17:08;;;;;;;13.27;8.63;;;4.80;99.90;;;;;;5034408;28;20507;-75
2021/04/19 00:19:34;;;;;;;11.77;7.32;;;4.80;99.90;;;;;;5034243;28;20064;-75
2021/04/19 00:22:00;;;;;;;7.35;6.15;;;4.90;99.90;;;;;;5034277;28;20047;-75
2021/04/19 00:24:25;;;;;;;9.90;6.20;;;5.00;99.90;;;;;;5034278;28;20442;-75
2021/04/19 00:26:51;;;;;;;7.07;4.72;;;4.90;99.90;;;;;;5034105;28;20022;-76
2021/04/19 00:29:17;;;;;;;5.03;4.53;;;4.80;99.90;;;;;;5031997;28;20029;-75
2021/04/19 00:31:43;;;;;;;4.78;4.28;;;4.60;99.90;;;;;;5034048;28;20396;-75
2021/04/19 00:34:09;;;;;;;5.50;3.35;;;4.70;99.90;;;;;;5034128;28;20029;-75
2021/04/19 00:36:34;;;;;;;5.75;3.70;;;4.40;99.90;;;;;;5034044;28;20030;-75
2021/04/19 00:39:00;;;;;;;5.88;4.57;;;4.20;99.90;;;;;;5033699;28;20033;-75
2021/04/19 00:41:27;;;;;;;8.30;5.28;;;4.10;99.90;;;;;;5034064;28;20033;-75
2021/04/19 00:43:52;;;;;;;9.70;5.35;;;4.30;99.90;;;;;;5033381;28;20053;-75
2021/04/19 00:46:19;;;;;;;9.07;5.90;;;4.60;99.90;;;;;;5033237;28;20096;-75
2021/04/19 00:48:44;;;;;;;8.93;6.47;;;4.40;99.90;;;;;;5033830;28;20032;-75
2021/04/19 00:51:10;;;;;;;6.03;4.00;;;4.50;99.90;;;;;;5033633;28;20025;-75
2021/04/19 00:53:37;;;;;;;5.03;4.22;;;4.30;99.90;;;;;;5033727;28;20025;-75
2021/04/19 00:56:04;;;;;;;3.90;3.47;;;3.80;99.90;;;;;;5033571;28;20022;-75
2021/04/19 00:58:34;;;;;;;5.70;4.45;;;3.70;99.90;;;;;;5033612;28;20024;-75
2021/04/19 01:01:01;;;;;;;5.30;3.65;;;3.80;99.90;;;;;;5026665;28;20053;-75
2021/04/19 01:03:27;;;;;;;4.47;3.20;;;4.00;99.90;;;;;;5030767;28;20026;-75
2021/04/19 01:05:53;;;;;;;4.30;3.60;;;4.10;99.90;;;;;;5033392;28;20383;-75
2021/04/19 01:08:19;;;;;;;3.67;3.35;;;3.90;99.90;;;;;;5035185;28;20028;-75
2021/04/19 01:10:45;;;;;;;5.10;3.30;;;3.80;99.90;;;;;;5033097;28;20026;-75
2021/04/19 01:13:11;;;;;;;4.15;3.17;;;3.60;99.90;;;;;;5033346;28;20021;-75
2021/04/19 01:15:37;;;;;;;7.30;3.72;;;3.70;99.90;;;;;;5033086;28;20037;-76
2021/04/19 01:18:04;;;;;;;4.50;3.63;;;3.60;99.90;;;;;;5033292;28;20399;-75
2021/04/19 01:20:31;;;;;;;8.55;5.10;;;3.60;99.90;;;;;;5032911;28;20037;-75
2021/04/19 01:22:57;;;;;;;5.90;4.28;;;3.70;99.90;;;;;;5032595;28;20533;-75
2021/04/19 01:25:28;;;;;;;5.03;4.25;;;4.00;99.90;;;;;;5032830;28;20029;-75
2021/04/19 01:27:56;;;;;;;5.78;3.78;;;4.20;99.90;;;;;;5033081;28;20120;-75
2021/04/19 01:30:29;;;;;;;4.47;3.75;;;3.90;99.90;;;;;;5033066;28;20426;-75
2021/04/19 01:32:54;;;;;;;4.70;3.97;;;3.60;99.90;;;;;;5033003;28;20047;-75
2021/04/19 01:35:20;;;;;;;6.68;5.13;;;3.30;99.90;;;;;;5033066;28;20030;-75
2021/04/19 01:37:46;;;;;;;7.85;5.85;;;3.20;99.90;;;;;;5031557;28;20033;-75
2021/04/19 01:40:14;;;;;;;12.27;6.60;;;3.20;99.90;;;;;;5032541;28;20029;-75
2021/04/19 01:42:40;;;;;;;7.43;5.57;;;3.50;99.90;;;;;;5031562;28;20029;-76
2021/04/19 01:45:07;;;;;;;8.02;6.03;;;3.70;99.90;;;;;;5031797;28;20155;-75
2021/04/19 01:47:33;;;;;;;6.53;4.30;;;3.60;99.90;;;;;;5046312;28;20033;-75
2021/04/19 01:50:05;;;;;;;9.13;4.25;;;3.80;99.90;;;;;;5052061;28;20040;-75
2021/04/19 01:52:30;;;;;;;10.20;5.45;;;3.90;99.90;;;;;;5044742;28;20151;-75
2021/04/19 01:54:56;;;;;;;5.15;4.45;;;3.80;99.90;;;;;;5032230;28;20116;-75
2021/04/19 01:57:22;;;;;;;5.97;3.85;;;3.60;99.90;;;;;;5032589;28;20033;-76
2021/04/19 01:59:48;;;;;;;5.40;3.83;;;3.30;99.90;;;;;;5032253;28;20084;-75
2021/04/19 02:02:28;;;;;;;7.55;4.45;;;3.20;99.90;;;;;;5032377;28;20060;-75
2021/04/19 02:05:00;;;;;;;8.27;5.30;;;3.30;99.90;;;;;;5032243;28;20021;-75
2021/04/19 02:07:38;;;;;;;9.65;6.57;;;3.30;99.90;;;;;;5032086;28;20042;-76
2021/04/19 02:10:34;;;;;;;9.65;6.47;;;3.00;99.90;;;;;;5032066;28;20124;-75
2021/04/19 02:13:08;;;;;;;6.95;5.80;;;3.00;99.90;;;;;;5030876;28;20029;-75
2021/04/19 02:15:46;;;;;;;10.25;7.97;;;3.10;99.90;;;;;;5032043;28;20037;-75
2021/04/19 02:18:43;;;;;;;8.10;6.45;;;3.10;99.90;;;;;;5031846;28;20021;-75
2021/04/19 02:21:23;;;;;;;4.97;4.38;;;3.10;99.90;;;;;;5032168;28;20029;-75
2021/04/19 02:23:54;;;;;;;5.90;4.40;;;3.40;99.90;;;;;;5049006;28;20048;-75
2021/04/19 02:26:25;;;;;;;4.85;4.00;;;3.70;99.90;;;;;;5051921;28;20498;-75
2021/04/19 02:29:06;;;;;;;5.03;3.72;;;3.90;99.90;;;;;;5052026;28;20032;-75
2021/04/19 02:31:40;;;;;;;3.70;3.35;;;4.00;99.90;;;;;;5052333;28;20018;-75
2021/04/19 02:34:12;;;;;;;3.92;3.40;;;3.80;99.90;;;;;;5050620;28;20029;-75
2021/04/19 02:36:45;;;;;;;4.05;3.58;;;3.40;99.90;;;;;;5051912;28;20021;-75
2021/04/19 02:39:12;;;;;;;4.68;3.88;;;3.30;99.90;;;;;;5051473;28;20040;-75
2021/04/19 02:41:40;;;;;;;4.13;3.72;;;3.30;99.90;;;;;;5051871;28;20039;-75
2021/04/19 02:44:09;;;;;;;6.07;4.30;;;3.50;99.90;;;;;;5051703;28;20100;-75
2021/04/19 02:46:36;;;;;;;4.72;4.25;;;3.50;99.90;;;;;;5034307;28;20026;-75
2021/04/19 02:49:04;;;;;;;5.47;4.03;;;3.70;99.90;;;;;;5031932;28;20017;-75
2021/04/19 02:51:30;;;;;;;5.47;4.53;;;3.50;99.90;;;;;;5031704;28;20021;-75
2021/04/19 02:53:57;;;;;;;4.05;3.33;;;3.50;99.90;;;;;;5031051;28;20032;-75
2021/04/19 02:56:24;;;;;;;4.40;3.65;;;3.40;99.90;;;;;;5031552;28;20025;-75
2021/04/19 02:58:57;;;;;;;3.67;3.35;;;3.00;99.90;;;;;;5031527;28;20044;-75
2021/04/19 03:01:27;;;;;;;6.35;5.20;;;3.00;99.90;;;;;;5032115;28;20039;-75
2021/04/19 03:03:58;;;;;;;6.95;5.18;;;3.00;99.90;;;;;;5035811;28;20037;-75
2021/04/19 03:06:26;;;;;;;5.63;4.82;;;3.30;99.90;;;;;;5035497;28;20554;-75
2021/04/19 03:09:00;;;;;;;6.75;4.78;;;3.40;99.90;;;;;;5035476;28;20021;-75
2021/04/19 03:12:06;;;;;;;5.20;4.10;;;3.50;99.90;;;;;;5035632;28;20032;-75
2021/04/19 03:14:39;;;;;;;4.22;3.63;;;3.60;99.90;;;;;;5033008;28;20029;-75
2021/04/19 03:17:12;;;;;;;5.20;4.57;;;3.70;99.90;;;;;;5035914;28;20573;-75
2021/04/19 03:19:42;;;;;;;5.20;4.10;;;3.80;99.90;;;;;;5033068;28;20045;-75
2021/04/19 03:22:09;;;;;;;4.63;3.97;;;3.60;99.90;;;;;;5033032;28;20069;-75
2021/04/19 03:24:36;;;;;;;7.32;4.45;;;3.40;99.90;;;;;;5016572;28;20060;-75
2021/04/19 03:27:04;;;;;;;3.85;3.55;;;3.30;99.90;;;;;;5016439;28;20033;-75
2021/04/19 03:29:32;;;;;;;5.45;4.32;;;3.40;99.90;;;;;;5033036;28;20056;-75
2021/04/19 03:32:05;;;;;;;4.50;4.10;;;3.40;99.90;;;;;;5033090;28;20068;-75
2021/04/19 03:34:34;;;;;;;5.65;4.47;;;3.40;99.90;;;;;;5032807;28;20029;-75
2021/04/19 03:37:06;;;;;;;5.88;3.97;;;3.30;99.90;;;;;;5032692;28;20037;-75
2021/04/19 03:39:34;;;;;;;6.05;4.60;;;3.20;99.90;;;;;;5032775;28;20521;-75
2021/04/19 03:42:01;;;;;;;5.38;4.32;;;3.20;99.90;;;;;;5032972;28;20033;-75
2021/04/19 03:44:30;;;;;;;7.43;3.90;;;3.30;99.90;;;;;;5032099;28;20080;-75
2021/04/19 03:46:59;;;;;;;8.77;4.57;;;3.20;99.90;;;;;;5035168;28;20470;-75
2021/04/19 03:49:35;;;;;;;5.75;4.43;;;3.20;99.90;;;;;;5033626;28;20116;-75
2021/04/19 03:52:07;;;;;;;6.07;4.45;;;3.00;99.90;;;;;;5034921;28;20029;-75
2021/04/19 03:54:38;;;;;;;7.22;4.53;;;2.90;99.90;;;;;;5034254;28;20029;-75
2021/04/19 03:57:07;;;;;;;6.07;5.03;;;3.00;99.90;;;;;;5033535;28;20426;-75
2021/04/19 03:59:35;;;;;;;7.78;4.82;;;3.10;99.90;;;;;;5034157;28;20179;-75
2021/04/19 04:02:03;;;;;;;4.13;3.72;;;3.20;99.90;;;;;;5034884;28;20025;-76
2021/04/19 04:04:30;;;;;;;4.38;3.97;;;3.10;99.90;;;;;;5034348;28;20524;-75
2021/04/19 04:07:00;;;;;;;4.63;4.13;;;2.90;99.90;;;;;;5050480;28;20029;-75
2021/04/19 04:09:26;;;;;;;8.05;5.60;;;2.80;99.90;;;;;;5043500;28;20395;-75
2021/04/19 04:11:53;;;;;;;7.72;4.68;;;2.90;99.90;;;;;;5046501;28;20033;-75
2021/04/19 04:14:19;;;;;;;8.48;5.22;;;3.10;99.90;;;;;;5035535;28;20406;-75
2021/04/19 04:16:45;;;;;;;6.55;5.05;;;3.00;99.90;;;;;;5044231;28;20034;-76
2021/04/19 04:19:11;;;;;;;7.20;5.63;;;3.10;99.90;;;;;;5038739;28;20022;-75
2021/04/19 04:21:37;;;;;;;6.45;5.70;;;3.20;99.90;;;;;;5033637;28;20116;-75
2021/04/19 04:24:04;;;;;;;6.75;5.15;;;3.10;99.90;;;;;;5034151;28;20080;-76
2021/04/19 04:26:31;;;;;;;5.05;3.80;;;2.90;99.90;;;;;;5038748;28;20030;-76
2021/04/19 04:28:58;;;;;;;6.70;4.90;;;2.80;99.90;;;;;;5043587;28;20096;-76
2021/04/19 04:31:23;;;;;;;5.53;4.65;;;2.70;99.90;;;;;;5046634;28;20642;-76
2021/04/19 04:33:49;;;;;;;7.38;5.13;;;2.50;99.90;;;;;;5042666;28;20115;-76
2021/04/19 04:36:16;;;;;;;5.10;4.57;;;2.40;99.90;;;;;;5043681;28;20544;-76
2021/04/19 04:38:43;;;;;;;8.23;5.25;;;2.50;99.90;;;;;;5044324;28;20036;-76
2021/04/19 04:41:09;;;;;;;6.90;5.07;;;2.50;99.90;;;;;;5038378;28;20116;-76
2021/04/19 04:43:37;;;;;;;6.55;4.82;;;2.40;99.90;;;;;;5038323;28;20100;-76
2021/04/19 04:46:27;;;;;;;5.53;4.85;;;2.40;99.90;;;;;;5048907;28;20043;-76
2021/04/19 04:49:03;;;;;;;7.68;5.13;;;2.50;99.90;;;;;;5032504;28;20470;-76
2021/04/19 04:51:31;;;;;;;8.32;5.70;;;2.40;99.90;;;;;;5032797;28;20403;-76
2021/04/19 04:54:02;;;;;;;14.38;10.18;;;2.50;99.90;;;;;;5045948;28;20036;-76
2021/04/19 04:56:33;;;;;;;20.55;15.48;;;2.60;99.90;;;;;;5052640;28;20032;-76
2021/04/19 04:59:00;;;;;;;18.95;12.23;;;2.80;99.90;;;;;;5033052;28;20025;-76
2021/04/19 05:01:28;;;;;;;7.72;6.85;;;2.80;99.90;;;;;;5031254;28;20091;-75
2021/04/19 05:03:54;;;;;;;5.13;4.63;;;2.80;99.90;;;;;;5031106;28;20021;-75
2021/04/19 05:06:20;;;;;;;7.22;4.80;;;2.70;99.90;;;;;;5031923;28;20021;-76
2021/04/19 05:08:48;;;;;;;4.55;4.00;;;2.50;99.90;;;;;;5032127;28;20024;-75
2021/04/19 05:11:14;;;;;;;5.63;5.00;;;2.30;99.90;;;;;;5032870;28;20029;-76
2021/04/19 05:13:41;;;;;;;8.10;6.40;;;2.10;99.90;;;;;;5032016;28;20311;-75
2021/04/19 05:16:06;;;;;;;12.05;8.57;;;2.30;99.90;;;;;;5031474;28;20155;-75
2021/04/19 05:18:32;;;;;;;7.45;6.70;;;2.40;99.90;;;;;;5032917;28;20513;-76
2021/04/19 05:20:58;;;;;;;17.63;12.30;;;2.50;99.90;;;;;;5037751;28;20040;-75
2021/04/19 05:23:25;;;;;;;7.28;6.30;;;2.60;99.90;;;;;;5033854;28;20483;-75
2021/04/19 05:25:51;;;;;;;9.43;6.80;;;2.80;99.90;;;;;;5030716;28;20429;-75
2021/04/19 05:28:20;;;;;;;7.60;6.90;;;2.50;99.90;;;;;;5031900;28;20014;-75
2021/04/19 05:30:49;;;;;;;8.93;7.00;;;2.40;99.90;;;;;;5035064;28;20515;-75
2021/04/19 05:33:16;;;;;;;8.88;7.05;;;2.40;99.90;;;;;;5035841;28;20018;-75
2021/04/19 05:35:42;;;;;;;35.63;20.13;;;2.50;99.90;;;;;;5033081;28;20026;-76
2021/04/19 05:38:09;;;;;;;13.95;10.02;;;2.70;99.90;;;;;;5048956;28;20036;-76
2021/04/19 05:40:36;;;;;;;16.58;10.00;;;2.90;99.90;;;;;;5036938;28;20036;-75
2021/04/19 05:43:04;;;;;;;18.70;11.18;;;2.70;99.90;;;;;;5035079;28;20032;-75
2021/04/19 05:45:31;;;;;;;24.58;14.57;;;2.70;99.90;;;;;;5032791;28;20029;-75
2021/04/19 05:47:59;;;;;;;26.92;17.05;;;2.80;99.90;;;;;;5030986;28;20049;-76
2021/04/19 05:50:26;;;;;;;27.15;15.98;;;3.00;99.90;;;;;;5031746;28;20053;-75
2021/04/19 05:52:54;;;;;;;8.75;6.38;;;3.20;99.90;;;;;;5030456;28;20021;-75
2021/04/19 05:55:23;;;;;;;8.85;5.78;;;3.30;99.90;;;;;;5031808;28;20096;-75
2021/04/19 05:58:00;;;;;;;11.20;7.88;;;3.30;99.90;;;;;;5031612;28;20030;-75
2021/04/19 06:00:34;;;;;;;22.80;14.32;;;3.20;99.90;;;;;;5030335;28;20541;-76
2021/04/19 06:03:27;;;;;;;15.18;11.02;;;3.20;99.90;;;;;;5032548;28;20017;-76
2021/04/19 06:06:25;;;;;;;40.58;22.67;;;3.20;99.90;;;;;;5018840;28;20078;-74
2021/04/19 06:09:04;;;;;;;69.60;36.78;;;3.40;99.90;;;;;;5030105;28;20045;-74
2021/04/19 06:11:48;;;;;;;32.25;18.85;;;3.70;99.90;;;;;;5036678;28;20017;-74
2021/04/19 06:14:21;;;;;;;11.43;7.78;;;3.90;99.90;;;;;;5032696;28;20036;-74
2021/04/19 06:16:48;;;;;;;22.30;13.98;;;4.00;99.90;;;;;;5040953;28;20057;-74
2021/04/19 06:19:18;;;;;;;18.67;12.32;;;4.00;99.90;;;;;;5030709;28;20025;-74
2021/04/19 06:21:45;;;;;;;15.10;8.02;;;4.20;99.90;;;;;;5031621;28;20080;-74
2021/04/19 06:24:11;;;;;;;9.50;6.40;;;4.30;99.90;;;;;;5030591;28;20032;-74
2021/04/19 06:26:38;;;;;;;7.00;5.85;;;4.40;99.90;;;;;;5034861;28;20052;-74
2021/04/19 06:29:05;;;;;;;9.13;5.45;;;4.40;99.90;;;;;;5039175;28;20644;-74
2021/04/19 06:31:32;;;;;;;6.55;5.00;;;4.40;99.90;;;;;;5034698;28;20053;-74
2021/04/19 06:34:10;;;;;;;9.00;6.85;;;4.50;99.90;;;;;;5037895;28;20549;-74
2021/04/19 06:36:47;;;;;;;10.77;7.80;;;4.70;99.90;;;;;;5031231;28;20395;-74
2021/04/19 06:39:15;;;;;;;8.13;6.72;;;4.80;99.90;;;;;;5035184;28;20026;-74
2021/04/19 06:41:42;;;;;;;7.32;5.72;;;5.10;99.90;;;;;;5023906;28;20063;-74
2021/04/19 06:44:08;;;;;;;7.05;6.35;;;5.30;99.90;;;;;;5037901;28;20029;-74
2021/04/19 06:46:39;;;;;;;5.88;4.82;;;5.50;99.90;;;;;;5043866;28;20022;-75
2021/04/19 06:49:07;;;;;;;9.73;7.15;;;5.60;99.90;;;;;;5030974;28;20121;-75
2021/04/19 06:51:34;;;;;;;11.07;6.30;;;5.70;99.90;;;;;;5032248;28;20029;-75
2021/04/19 06:54:00;;;;;;;8.57;5.63;;;5.80;99.90;;;;;;5034495;28;20033;-75
2021/04/19 06:56:38;;;;;;;6.32;5.63;;;6.00;99.90;;;;;;5040004;28;20068;-75
2021/04/19 06:59:05;;;;;;;13.60;6.80;;;6.20;99.90;;;;;;5037204;28;20450;-75
2021/04/19 07:01:35;;;;;;;7.22;6.10;;;6.30;99.90;;;;;;5024986;28;20112;-75
2021/04/19 07:04:04;;;;;;;7.68;6.32;;;6.50;99.90;;;;;;5064435;28;20030;-75
2021/04/19 07:06:34;;;;;;;7.00;5.18;;;6.80;99.90;;;;;;5030032;28;20336;-75
2021/04/19 07:09:17;;;;;;;9.77;5.53;;;7.00;99.90;;;;;;5033909;28;20059;-78
2021/04/19 07:11:44;;;;;;;7.90;5.03;;;7.20;99.90;;;;;;5031057;28;20030;-75
2021/04/19 07:14:15;;;;;;;7.03;4.90;;;7.30;99.90;;;;;;5031366;28;20026;-75
2021/04/19 07:16:41;;;;;;;5.18;4.65;;;7.30;99.90;;;;;;5031671;28;20080;-75
2021/04/19 07:19:07;;;;;;;5.72;5.22;;;7.50;99.90;;;;;;5030264;28;20030;-75
2021/04/19 07:21:33;;;;;;;5.18;4.68;;;7.70;99.90;;;;;;5031559;28;20026;-75
2021/04/19 07:24:02;;;;;;;11.07;6.55;;;8.00;99.90;;;;;;5031433;28;20041;-75
2021/04/19 07:26:28;;;;;;;5.13;4.63;;;8.20;99.90;;;;;;5030266;28;20033;-75
2021/04/19 07:28:55;;;;;;;6.25;4.72;;;8.30;99.90;;;;;;5031070;28;20032;-75
2021/04/19 07:31:21;;;;;;;7.07;4.88;;;8.40;99.90;;;;;;5031450;28;20120;-75
2021/04/19 07:33:47;;;;;;;8.82;5.25;;;8.60;99.90;;;;;;5031237;28;20530;-75
2021/04/19 07:36:26;;;;;;;6.30;5.00;;;8.70;99.90;;;;;;5031517;28;20051;-75
2021/04/19 07:38:53;;;;;;;5.47;4.80;;;8.80;99.90;;;;;;5031361;28;20036;-75
2021/04/19 07:41:20;;;;;;;6.32;4.88;;;8.90;99.90;;;;;;5031392;28;20088;-75
2021/04/19 07:43:48;;;;;;;6.40;5.25;;;9.10;99.90;;;;;;5030637;28;20107;-75
2021/04/19 07:46:16;;;;;;;9.02;5.68;;;9.30;99.90;;;;;;5031371;28;20391;-75
2021/04/19 07:48:45;;;;;;;6.70;4.95;;;9.40;99.90;;;;;;5033693;28;20033;-75
2021/04/19 07:51:33;;;;;;;5.00;4.50;;;9.60;99.90;;;;;;5034706;28;20507;-75
2021/04/19 07:54:11;;;;;;;5.60;4.70;;;9.80;99.90;;;;;;5034948;28;20113;-75
2021/04/19 07:56:42;;;;;;;7.15;4.32;;;10.00;99.90;;;;;;5014725;28;20053;-75
2021/04/19 07:59:34;;;;;;;9.18;4.35;;;10.10;98.90;;;;;;5014810;28;20574;-75
2021/04/19 08:02:02;;;;;;;10.52;4.70;;;10.30;98.50;;;;;;5014995;28;20022;-75
2021/04/19 08:04:29;;;;;;;5.28;4.03;;;10.40;99.90;;;;;;5014926;28;20240;-75
2021/04/19 08:06:56;;;;;;;6.47;4.22;;;10.70;99.90;;;;;;5013528;28;20507;-75
2021/04/19 08:09:26;;;;;;;6.95;5.03;;;10.80;98.90;;;;;;5014893;28;20026;-75
2021/04/19 08:11:57;;;;;;;8.68;4.70;;;10.80;97.90;;;;;;5014484;28;20380;-75
2021/04/19 08:14:27;;;;;;;4.85;4.43;;;10.90;96.10;;;;;;5013548;28;20452;-75
2021/04/19 08:17:11;;;;;;;4.60;3.92;;;11.20;96.20;;;;;;5014612;28;20029;-75
2021/04/19 08:19:39;;;;;;;5.50;4.05;;;11.30;93.10;;;;;;5014678;28;20411;-75
2021/04/19 08:22:17;;;;;;;8.15;4.18;;;11.70;93.20;;;;;;5014598;28;20026;-75
2021/04/19 08:24:44;;;;;;;6.97;4.00;;;11.80;91.40;;;;;;5014234;28;20033;-75
2021/04/19 08:27:19;;;;;;;5.03;4.43;;;12.20;92.40;;;;;;5014061;28;20029;-75
2021/04/19 08:29:46;;;;;;;6.25;3.80;;;12.50;91.20;;;;;;5014540;28;20073;-75
2021/04/19 08:32:14;;;;;;;4.32;3.92;;;12.70;87.00;;;;;;5014460;28;20499;-75
2021/04/19 08:34:41;;;;;;;6.80;3.83;;;13.00;78.50;;;;;;5014381;28;20033;-75
2021/04/19 08:37:09;;;;;;;7.13;4.07;;;13.10;79.50;;;;;;5014248;28;20088;-75
2021/04/19 08:39:37;;;;;;;6.50;4.13;;;13.30;75.30;;;;;;5014165;28;20053;-75
2021/04/19 08:42:03;;;;;;;6.22;4.00;;;13.50;78.20;;;;;;5013875;28;20079;-75
2021/04/19 08:44:35;;;;;;;3.95;3.40;;;13.40;72.40;;;;;;5023986;28;20399;-75
2021/04/19 08:47:03;;;;;;;5.05;4.00;;;13.50;73.30;;;;;;5033892;28;20479;-75
2021/04/19 08:49:30;;;;;;;5.63;3.40;;;13.60;68.90;;;;;;5033979;28;20036;-75
2021/04/19 08:51:56;;;;;;;6.45;4.10;;;13.90;70.60;;;;;;5033802;28;20037;-75
2021/04/19 08:54:23;;;;;;;6.35;4.00;;;14.30;68.90;;;;;;5033741;28;20495;-75
2021/04/19 08:56:49;;;;;;;8.55;4.20;;;14.70;69.70;;;;;;5033363;28;20032;-75
2021/04/19 08:59:17;;;;;;;5.22;3.53;;;15.10;70.30;;;;;;5033388;28;20095;-75
2021/04/19 09:01:44;;;;;;;3.97;3.38;;;15.30;71.20;;;;;;5033591;28;20053;-75
2021/04/19 09:04:10;;;;;;;5.40;3.58;;;15.50;66.90;;;;;;5033472;28;20026;-75
2021/04/19 09:06:55;;;;;;;6.45;3.97;;;15.80;67.40;;;;;;5032394;28;20025;-75
2021/04/19 09:09:32;;;;;;;4.50;3.58;;;16.20;70.40;;;;;;5033134;28;20052;-75
2021/04/19 09:12:10;;;;;;;5.28;3.55;;;16.60;66.80;;;;;;5033411;28;20040;-75
2021/04/19 09:14:38;;;;;;;5.05;3.80;;;17.00;63.70;;;;;;5033347;28;20030;-75
2021/04/19 09:17:05;;;;;;;7.53;3.92;;;17.10;62.90;;;;;;5032074;28;20120;-75
2021/04/19 09:19:31;;;;;;;6.55;3.45;;;17.20;60.40;;;;;;5033364;28;20029;-75
2021/04/19 09:22:06;;;;;;;4.50;4.05;;;17.90;59.70;;;;;;5032058;28;20029;-75
2021/04/19 09:24:59;;;;;;;6.30;3.60;;;21.60;54.60;;;;;;5032937;28;20103;-75
2021/04/19 09:27:57;;;;;;;6.68;4.18;;;25.60;46.60;;;;;;5033259;28;20079;-75
2021/04/19 09:30:26;;;;;;;6.18;4.43;;;26.10;42.10;;;;;;5033050;28;20044;-75
2021/04/19 09:33:04;;;;;;;5.38;4.45;;;26.90;39.40;;;;;;5033061;28;20471;-76
2021/04/19 09:35:46;;;;;;;5.90;3.92;;;28.10;41.50;;;;;;5032870;28;20021;-75
2021/04/19 09:38:30;;;;;;;4.20;3.75;;;26.20;40.60;;;;;;5032689;28;20091;-76
2021/04/19 09:40:59;;;;;;;4.13;3.20;;;27.30;39.90;;;;;;5032970;28;20025;-75
2021/04/19 09:43:38;;;;;;;5.63;4.07;;;28.20;40.10;;;;;;5031326;28;20399;-75
2021/04/19 09:46:09;;;;;;;3.80;3.28;;;27.90;38.10;;;;;;5033064;28;20018;-76
2021/04/19 09:48:40;;;;;;;3.92;3.63;;;27.50;37.50;;;;;;5032821;28;20408;-76
2021/04/19 09:51:20;;;;;;;4.40;4.00;;;28.00;37.50;;;;;;5032513;28;20060;-75
2021/04/19 09:53:54;;;;;;;4.82;3.50;;;29.30;37.60;;;;;;5032483;28;20449;-75
2021/04/19 09:56:22;;;;;;;4.47;4.10;;;28.20;36.90;;;;;;5032506;28;20022;-76
2021/04/19 09:58:48;;;;;;;4.15;3.83;;;28.60;38.40;;;;;;5032318;28;20406;-75
2021/04/19 10:01:17;;;;;;;5.07;3.53;;;28.70;37.00;;;;;;5032444;28;20104;-76
2021/04/19 10:03:51;;;;;;;5.45;3.45;;;29.20;38.50;;;;;;5032506;28;20021;-75
2021/04/19 10:06:21;;;;;;;4.72;3.88;;;29.80;37.30;;;;;;5032402;28;20033;-76
2021/04/19 10:08:49;;;;;;;6.03;3.20;;;30.00;35.90;;;;;;5032066;28;20042;-76
2021/04/19 10:11:22;;;;;;;6.38;3.40;;;30.80;37.80;;;;;;5030678;28;20049;-76
2021/04/19 10:13:48;;;;;;;8.98;4.25;;;30.90;36.00;;;;;;5032365;28;20020;-76
2021/04/19 10:16:14;;;;;;;5.72;3.65;;;31.30;36.40;;;;;;5030853;28;20034;-76
2021/04/19 10:18:43;;;;;;;4.60;3.50;;;31.40;36.90;;;;;;5032317;28;20058;-76
2021/04/19 10:21:22;;;;;;;4.00;3.70;;;31.40;36.50;;;;;;5032206;28;20045;-76
2021/04/19 10:23:48;;;;;;;4.15;3.83;;;29.50;35.40;;;;;;5031939;28;20026;-76
2021/04/19 10:26:15;;;;;;;3.65;3.17;;;30.60;36.20;;;;;;5032072;28;20411;-76
2021/04/19 10:28:43;;;;;;;6.25;3.45;;;30.90;35.70;;;;;;5032141;28;20033;-76
2021/04/19 10:31:19;;;;;;;5.60;4.80;;;31.60;37.40;;;;;;5031985;28;20109;-76
2021/04/19 10:33:47;;;;;;;6.32;3.70;;;31.10;34.50;;;;;;5031989;28;20032;-76
2021/04/19 10:36:19;;;;;;;4.72;3.40;;;31.70;35.40;;;;;;5031539;28;20025;-76
2021/04/19 10:38:47;;;;;;;5.05;3.35;;;32.40;34.10;;;;;;5031991;28;20030;-76
2021/04/19 10:41:13;;;;;;;4.07;3.35;;;32.40;35.00;;;;;;5031773;28;20029;-76
2021/04/19 10:43:41;;;;;;;4.72;4.05;;;32.20;33.80;;;;;;5031658;28;20087;-76
2021/04/19 10:46:33;;;;;;;3.85;3.13;;;31.10;33.00;;;;;;5031923;28;20032;-76
2021/04/19 10:49:00;;;;;;;4.10;3.80;;;30.30;34.80;;;;;;5031868;28;20396;-76
2021/04/19 10:51:31;;;;;;;4.30;3.90;;;31.70;34.50;;;;;;5031305;28;20101;-76
2021/04/19 10:53:59;;;;;;;3.67;3.38;;;31.40;33.70;;;;;;5031915;28;20032;-76
2021/04/19 10:56:26;;;;;;;3.95;3.30;;;31.10;33.80;;;;;;5031686;28;20025;-76
2021/04/19 10:59:00;;;;;;;4.25;3.90;;;31.10;33.70;;;;;;5031500;28;20026;-76
2021/04/19 11:01:30;;;;;;;5.43;3.47;;;31.20;34.10;;;;;;5031681;28;20060;-76
2021/04/19 11:03:57;;;;;;;3.65;3.35;;;32.20;33.60;;;;;;5031807;28;20071;-76
2021/04/19 11:06:23;;;;;;;8.15;3.85;;;33.50;33.70;;;;;;5031328;28;20026;-76
2021/04/19 11:08:50;;;;;;;5.00;3.83;;;34.00;32.30;;;;;;5031572;28;20080;-74
2021/04/19 11:11:29;;;;;;;4.10;3.72;;;33.20;31.50;;;;;;5031650;28;20480;-73
2021/04/19 11:14:16;;;;;;;4.17;3.57;;;34.00;32.00;;;;;;5031682;28;20041;-74
2021/04/19 11:17:09;;;;;;;4.80;4.40;;;34.60;31.80;;;;;;5031651;28;20276;-74
2021/04/19 11:19:46;;;;;;;4.72;3.78;;;34.30;31.30;;;;;;5030761;28;20064;-74
2021/04/19 11:22:20;;;;;;;8.48;4.30;;;35.30;31.20;;;;;;5031618;28;20032;-74
2021/04/19 11:24:46;;;;;;;4.53;4.15;;;35.20;31.70;;;;;;5035413;28;20036;-73
2021/04/19 11:27:13;;;;;;;4.40;4.05;;;34.90;31.90;;;;;;5035474;28;20030;-74
2021/04/19 11:29:40;;;;;;;3.95;3.75;;;35.00;31.70;;;;;;5034025;28;20026;-74
2021/04/19 11:32:26;;;;;;;4.75;4.32;;;35.30;33.10;;;;;;5035455;28;20076;-73
2021/04/19 11:34:53;;;;;;;4.90;3.85;;;36.00;31.50;;;;;;5033915;28;20104;-74
2021/04/19 11:37:57;;;;;;;4.53;4.13;;;35.40;30.70;;;;;;5035290;28;20021;-74
2021/04/19 11:40:33;;;;;;;4.68;3.60;;;34.50;31.40;;;;;;5034710;28;20061;-73
2021/04/19 11:43:20;;;;;;;9.40;4.15;;;34.60;32.60;;;;;;5035039;28;20033;-74
2021/04/19 11:45:48;;;;;;;5.47;4.28;;;34.80;31.40;;;;;;5034858;28;20099;-73
2021/04/19 11:48:14;;;;;;;4.28;3.97;;;34.00;33.10;;;;;;5035124;28;20029;-74
2021/04/19 11:50:41;;;;;;;3.83;3.60;;;34.00;31.10;;;;;;5034602;28;20032;-73
2021/04/19 11:53:07;;;;;;;3.88;3.58;;;35.30;32.80;;;;;;5034918;28;20487;-74
2021/04/19 11:55:33;;;;;;;3.95;3.63;;;36.30;31.50;;;;;;5034918;28;20021;-74
2021/04/19 11:57:59;;;;;;;6.70;3.90;;;36.40;33.50;;;;;;5034879;28;20075;-74
2021/04/19 12:00:27;;;;;;;4.30;3.90;;;35.30;31.10;;;;;;5034686;28;20041;-76
2021/04/19 12:02:53;;;;;;;4.70;4.03;;;35.10;31.10;;;;;;5034938;28;20446;-76
2021/04/19 12:05:19;;;;;;;7.97;4.05;;;36.00;32.50;;;;;;5034488;28;20033;-76
2021/04/19 12:07:45;;;;;;;3.90;3.60;;;36.60;32.60;;;;;;5034429;28;20078;-76
2021/04/19 12:10:11;;;;;;;6.32;4.30;;;37.00;31.20;;;;;;5034691;28;20477;-76
2021/04/19 12:12:37;;;;;;;4.20;3.75;;;36.30;30.90;;;;;;5034750;28;20543;-76
2021/04/19 12:15:05;;;;;;;4.47;4.18;;;36.30;30.70;;;;;;5034570;28;20041;-76
2021/04/19 12:17:31;;;;;;;5.47;4.70;;;36.10;31.80;;;;;;5034378;28;20032;-76
2021/04/19 12:19:57;;;;;;;4.80;4.28;;;35.70;30.00;;;;;;5034058;28;20022;-76
2021/04/19 12:22:23;;;;;;;5.43;3.70;;;35.60;29.90;;;;;;5034595;28;20087;-76
2021/04/19 12:24:49;;;;;;;3.97;3.67;;;35.40;31.30;;;;;;5034197;28;20112;-77
2021/04/19 12:27:15;;;;;;;5.18;3.95;;;35.60;30.80;;;;;;5034364;28;20163;-76
2021/04/19 12:29:40;;;;;;;3.90;3.60;;;35.10;30.20;;;;;;5034195;28;20045;-76
2021/04/19 12:32:06;;;;;;;4.03;3.72;;;34.90;29.90;;;;;;5034028;28;20030;-76
2021/04/19 12:34:32;;;;;;;3.78;3.35;;;35.30;30.70;;;;;;5033751;28;20036;-77
2021/04/19 12:36:58;;;;;;;5.10;3.97;;;35.50;31.50;;;;;;5032761;28;20025;-76
2021/04/19 12:39:23;;;;;;;4.57;3.78;;;35.50;32.00;;;;;;5034045;28;20029;-77
2021/04/19 12:41:50;;;;;;;4.40;4.00;;;34.70;29.30;;;;;;5033931;28;20033;-76
2021/04/19 12:44:16;;;;;;;5.03;4.47;;;32.80;30.50;;;;;;5033850;28;20032;-77
2021/04/19 12:46:42;;;;;;;3.88;3.58;;;32.90;30.90;;;;;;5033606;28;20026;-77
2021/04/19 12:49:08;;;;;;;4.20;3.80;;;32.50;31.80;;;;;;5033824;28;20466;-76
2021/04/19 12:51:34;;;;;;;4.38;3.53;;;32.90;32.40;;;;;;5032557;28;20072;-76
2021/04/19 12:54:00;;;;;;;8.35;3.78;;;33.30;31.70;;;;;;5033882;28;20025;-76
2021/04/19 12:56:27;;;;;;;3.97;3.50;;;34.30;31.90;;;;;;5033847;28;20038;-76
2021/04/19 12:58:53;;;;;;;5.55;3.55;;;35.70;32.00;;;;;;5033464;28;20025;-77
2021/04/19 13:01:19;;;;;;;3.88;3.58;;;35.20;29.90;;;;;;5033483;28;20029;-77
2021/04/19 13:03:44;;;;;;;3.83;3.13;;;35.30;30.80;;;;;;5033529;28;20033;-77